CV7303 / LX-VCJ 7700 Squawk Report (16th of January, 2019)

Aircraft B748 Reg No. LX-VCJ Age 4 years old
Model 747 Jet engines 4 First flight 20-02-14
Registered 09-14 Rollout N/A Delivered 30-09-14
Construction No. 38077 Line No. 1490 Series 8R7F
ADSHEX 4D0113 Airline name Cargolux Owner N/A
Airfield based Luxembourg-Findel~ ~LX First tracked 2017-07-13 02:01:00

Flight history for LX-VCJ

Route Flight No Date Playback
Hong Kong Intl (HKG) - Los Angeles Intl (LAX) - Miami Intl (MIA) CV4316 2019-02-16 11:32:00
Luxembourg (LUX) - Suvarnabhumi Intl (BKK) - Hong Kong Intl (HKG) CV8705 2019-02-16 08:15:00
???? N/A 2019-02-15 10:12:00
???? N/A 2019-02-14 23:51:00
???? N/A 2019-02-14 05:34:00
Suvarnabhumi Intl (BKK) - Hong Kong Intl (HKG) - Ferihegy (BUD) - Luxembourg (LUX) CV7333 2019-02-13 20:00:00
Suvarnabhumi Intl (BKK) - Hong Kong Intl (HKG) CV6322 2019-02-13 05:10:00
Luxembourg (LUX) - Hamad International Airport (DOH) - Suvarnabhumi Intl (BKK) - Hong Kong Intl (HKG) CV7322 2019-02-12 21:16:00
???? N/A 2019-02-11 16:33:00
Licenciado Benito Juarez Intl (MEX) - Guadalajara International Airport (GDL) - George Bush Intercontinental (IAH) - Luxembourg (LUX) CV7791 2019-02-11 02:57:00
Luxembourg (LUX) - Licenciado Benito Juarez Intl (MEX) - Guadalajara International Airport (GDL) CV7787 2019-02-10 19:55:00
???? CV8203 2019-02-09 16:07:00
Viracopos (VCP) - Afonso Pena (CWB) - Mariscal Sucre Intl (UIO) - Eldorado Intl (BOG) - Rafael Hernandez (BQN) - Schiphol (AMS) - Luxembourg (LUX) CV7615 2019-02-09 15:26:00
Viracopos (VCP) - Afonso Pena (CWB) - Mariscal Sucre Intl (UIO) - Eldorado Intl (BOG) - Rafael Hernandez (BQN) - Schiphol (AMS) - Luxembourg (LUX) CV7615 2019-02-09 13:44:00
Luxembourg (LUX) - Viracopos (VCP) - Afonso Pena (CWB) - Mariscal Sucre Intl (UIO) - Eldorado Intl (BOG) CV7604 2019-02-08 14:49:00
???? N/A 2019-02-07 21:29:00
???? N/A 2019-02-07 16:21:00
???? N/A 2019-02-06 17:03:00
???? N/A 2019-02-06 02:57:00
???? N/A 2019-02-05 13:10:00
Time Lat Lon Altitude Heading Speed Vertical Rate
2019-01-16 12:26:31 GMT 2.729404 101.734772 600 327 180 -960
2019-01-16 12:26:20 GMT 2.721956 101.739746 775 327 180 -896
2019-01-16 12:26:04 GMT 2.710970 101.747131 1,025 326 182 -896
2019-01-16 12:25:59 GMT 2.707169 101.749695 1,100 326 178 -896
2019-01-16 12:25:48 GMT 2.699524 101.754814 1,250 326 178 -896
2019-01-16 12:25:37 GMT 2.691696 101.760071 1,425 326 181 -896
2019-01-16 12:25:26 GMT 2.684143 101.765099 1,600 327 183 -960
2019-01-16 12:25:14 GMT 2.675720 101.770737 1,800 326 186 -960
2019-01-16 12:24:59 GMT 2.664597 101.778229 2,050 327 188 -1024
2019-01-16 12:24:52 GMT 2.660110 101.781258 2,150 326 185 -832
2019-01-16 12:24:41 GMT 2.652054 101.786697 2,325 326 183 -1024
2019-01-16 12:24:30 GMT 2.644409 101.791779 2,475 327 181 -1024
2019-01-16 12:24:19 GMT 2.636627 101.796944 2,675 326 187 -960
2019-01-16 12:24:09 GMT 2.629166 101.801971 2,850 326 188 -960
2019-01-16 12:23:58 GMT 2.620938 101.807510 3,025 326 193 -1024
2019-01-16 12:23:47 GMT 2.612640 101.813049 3,225 328 195 -896
2019-01-16 12:23:36 GMT 2.604126 101.818542 3,400 325 197 -1216
2019-01-16 12:23:30 GMT 2.600687 101.821053 3,500 323 198 -1280
2019-01-16 12:23:24 GMT 2.595795 101.824875 3,625 323 201 -1280
2019-01-16 12:23:18 GMT 2.590772 101.828537 3,775 325 203 -1152
2019-01-16 12:23:12 GMT 2.586629 101.831184 3,850 330 202 -832
2019-01-16 12:23:09 GMT 2.584254 101.832466 3,900 336 201 -640
2019-01-16 12:23:02 GMT 2.577072 101.835159 4,025 343 206 -768
2019-01-16 12:22:58 GMT 2.574783 101.835907 4,050 334 211 -704
2019-01-16 12:22:51 GMT 2.567821 101.839287 4,100 323 215 -576
2019-01-16 12:22:43 GMT 2.562933 101.844070 4,125 299 221 64
2019-01-16 12:22:40 GMT 2.561234 101.846848 4,125 296 222 64
2019-01-16 12:22:36 GMT 2.559631 101.850990 4,100 282 227 0
2019-01-16 12:22:30 GMT 2.558930 101.857941 4,100 265 237 -256
2019-01-16 12:22:25 GMT 2.559768 101.862816 4,125 252 242 -64
2019-01-16 12:22:18 GMT 2.562794 101.869926 4,125 239 243 -64
2019-01-16 12:22:14 GMT 2.565121 101.873665 4,125 237 243 -64
2019-01-16 12:22:07 GMT 2.569451 101.880104 4,125 237 243 0
2019-01-16 12:22:00 GMT 2.573640 101.886261 4,125 236 244 0
2019-01-16 12:21:56 GMT 2.576202 101.889999 4,125 237 245 0
2019-01-16 12:21:46 GMT 2.583252 101.900383 4,150 236 254 -128
2019-01-16 12:21:34 GMT 2.590725 101.911263 4,150 236 267 64
2019-01-16 12:21:23 GMT 2.599105 101.923531 4,150 236 282 -128
2019-01-16 12:21:09 GMT 2.609299 101.938637 4,300 236 293 -1088
2019-01-16 12:21:05 GMT 2.612325 101.942993 4,425 236 294 -1920
2019-01-16 12:20:57 GMT 2.618591 101.952286 4,675 236 294 -2048
2019-01-16 12:20:49 GMT 2.624941 101.961693 4,975 236 296 -2048
2019-01-16 12:20:46 GMT 2.626785 101.964439 5,050 237 297 -1984
2019-01-16 12:20:34 GMT 2.636533 101.978889 5,450 237 300 -1856
2019-01-16 12:20:24 GMT 2.643841 101.989685 5,750 237 303 -1856
2019-01-16 12:20:17 GMT 2.650818 102.000099 6,025 237 306 -1856
2019-01-16 12:20:13 GMT 2.652466 102.002563 6,100 237 306 -1856
2019-01-16 12:20:02 GMT 2.661209 102.015549 6,450 237 308 -1920
2019-01-16 12:19:48 GMT 2.672562 102.032494 6,925 237 310 -2048
2019-01-16 12:19:44 GMT 2.675730 102.037277 7,075 237 310 -2176
2019-01-16 12:19:39 GMT 2.679593 102.043053 7,250 237 310 -2240
2019-01-16 12:19:30 GMT 2.687347 102.054611 7,675 236 308 -2752
2019-01-16 12:19:16 GMT 2.698168 102.070473 8,300 236 303 -2688
2019-01-16 12:19:09 GMT 2.703568 102.078423 8,600 237 303 -2624
2019-01-16 12:19:05 GMT 2.706687 102.083115 8,750 237 304 -2176
2019-01-16 12:18:57 GMT 2.713576 102.092773 8,975 231 308 -1472
2019-01-16 12:18:46 GMT 2.724470 102.104095 9,125 220 315 -192
2019-01-16 12:18:35 GMT 2.737504 102.113419 9,125 209 318 128
2019-01-16 12:18:24 GMT 2.752634 102.120148 9,125 200 318 0
2019-01-16 12:18:17 GMT 2.763248 102.123886 9,125 200 320 64
2019-01-16 12:18:13 GMT 2.767456 102.125366 9,125 200 320 192
2019-01-16 12:18:02 GMT 2.782893 102.130798 9,125 200 321 -384
2019-01-16 12:17:54 GMT 2.797073 102.135796 9,150 200 327 384
2019-01-16 12:17:51 GMT 2.798674 102.136337 9,125 200 327 320
2019-01-16 12:17:41 GMT 2.814083 102.141739 9,125 200 345 -192
2019-01-16 12:17:30 GMT 2.831360 102.147804 9,125 200 361 192
2019-01-16 12:17:19 GMT 2.848857 102.154198 9,225 201 380 -320
2019-01-16 12:17:08 GMT 2.867618 102.160965 9,425 200 393 -1920
2019-01-16 12:16:57 GMT 2.886932 102.167778 9,775 200 401 -1536
2019-01-16 12:16:46 GMT 2.906204 102.174667 9,950 200 407 -960
2019-01-16 12:16:35 GMT 2.925980 102.181740 10,125 200 407 -448
2019-01-16 12:16:23 GMT 2.946304 102.189049 10,125 200 399 64
2019-01-16 12:16:12 GMT 2.965530 102.195938 10,125 200 408 -64
2019-01-16 12:16:01 GMT 2.985947 102.203346 10,150 201 420 -192
2019-01-16 12:15:54 GMT 3.001099 102.208931 10,225 201 428 -768
2019-01-16 12:15:50 GMT 3.005402 102.210464 10,275 201 428 -896
2019-01-16 12:15:43 GMT 3.021054 102.216179 10,475 201 433 -1920
2019-01-16 12:15:40 GMT 3.025756 102.217888 10,550 201 434 -1920
2019-01-16 12:15:31 GMT 3.044004 102.224464 10,900 200 436 -2048
2019-01-16 12:15:28 GMT 3.047836 102.225876 10,950 200 437 -2048
2019-01-16 12:15:21 GMT 3.063904 102.231697 11,250 200 439 -1984
2019-01-16 12:15:18 GMT 3.067932 102.233139 11,325 200 439 -1984
2019-01-16 12:15:07 GMT 3.088165 102.240303 11,700 199 440 -2304
2019-01-16 12:14:55 GMT 3.111237 102.248177 12,225 200 440 -2688
2019-01-16 12:14:49 GMT 3.122817 102.252220 12,525 200 438 -3008
2019-01-16 12:14:44 GMT 3.131882 102.255386 12,725 200 439 -2304
2019-01-16 12:14:40 GMT 3.139948 102.258232 12,875 200 440 -1984
2019-01-16 12:14:34 GMT 3.152285 102.262634 13,100 200 441 -1920
2019-01-16 12:14:28 GMT 3.163147 102.266418 13,300 200 443 -2048
2019-01-16 12:14:23 GMT 3.173630 102.270149 13,500 200 444 -2304
2019-01-16 12:14:18 GMT 3.183195 102.273483 13,675 200 444 -2496
2019-01-16 12:14:12 GMT 3.194508 102.277458 13,925 200 444 -2624
2019-01-16 12:14:08 GMT 3.203064 102.280479 14,125 200 444 -2624
2019-01-16 12:14:01 GMT 3.215735 102.284988 14,400 200 445 -2432
2019-01-16 12:13:57 GMT 3.224304 102.288025 14,550 200 445 -2176
2019-01-16 12:13:49 GMT 3.238815 102.293190 14,775 200 448 -1728
2019-01-16 12:13:46 GMT 3.245482 102.295547 14,875 200 448 -1344
2019-01-16 12:13:39 GMT 3.259215 102.300522 14,975 201 449 -704
2019-01-16 12:13:36 GMT 3.266058 102.302986 15,000 201 450 -128
2019-01-16 12:13:28 GMT 3.280792 102.308365 15,000 201 449 0
2019-01-16 12:13:25 GMT 3.287659 102.310829 15,000 200 448 0
2019-01-16 12:13:17 GMT 3.301804 102.315857 15,000 200 448 0
2019-01-16 12:13:14 GMT 3.308840 102.318329 15,000 200 448 64
2019-01-16 12:13:06 GMT 3.324188 102.324333 15,000 204 449 0
2019-01-16 12:13:03 GMT 3.331970 102.327873 15,000 208 448 0
2019-01-16 12:12:53 GMT 3.350970 102.338219 15,000 214 447 0
2019-01-16 12:12:44 GMT 3.363327 102.346306 15,000 216 447 0
2019-01-16 12:12:41 GMT 3.370335 102.351471 15,000 218 447 128
2019-01-16 12:12:33 GMT 3.381363 102.360641 15,000 223 449 -128
2019-01-16 12:12:30 GMT 3.385977 102.364922 15,000 226 449 -64
2019-01-16 12:12:20 GMT 3.400726 102.380524 15,000 229 450 0
2019-01-16 12:12:12 GMT 3.412170 102.393227 15,000 228 451 0
2019-01-16 12:12:09 GMT 3.415695 102.397095 15,000 228 451 0
2019-01-16 12:11:58 GMT 3.430900 102.413795 15,000 228 450 0
2019-01-16 12:11:50 GMT 3.442886 102.426888 15,000 228 450 64
2019-01-16 12:11:47 GMT 3.448746 102.433174 15,000 226 453 192
2019-01-16 12:11:37 GMT 3.461299 102.446609 15,000 227 452 -128
2019-01-16 12:11:26 GMT 3.477631 102.463570 15,000 225 453 128
2019-01-16 12:11:16 GMT 3.493561 102.476929 15,000 215 453 0
2019-01-16 12:11:04 GMT 3.515951 102.489418 15,000 205 452 -64
2019-01-16 12:10:54 GMT 3.534668 102.495689 15,000 194 453 -64
2019-01-16 12:10:43 GMT 3.557522 102.499268 15,000 183 455 64
2019-01-16 12:10:32 GMT 3.580353 102.498764 15,000 173 454 0
2019-01-16 12:10:21 GMT 3.603795 102.495338 15,000 170 453 0
2019-01-16 12:10:11 GMT 3.625580 102.491638 15,000 170 453 128
2019-01-16 12:10:07 GMT 3.633449 102.490318 15,000 143 458 -960
2019-01-16 12:10:00 GMT 3.648439 102.487762 14,975 170 454 64
2019-01-16 12:09:49 GMT 3.670784 102.484116 15,100 170 456 -960
2019-01-16 12:09:38 GMT 3.694199 102.480232 15,275 169 456 -896
2019-01-16 12:09:28 GMT 3.736450 102.469299 15,525 159 457 -1024
2019-01-16 12:09:17 GMT 3.736450 102.469299 15,600 156 457 -1024
2019-01-16 12:09:06 GMT 3.757278 102.458733 15,800 147 459 -960
2019-01-16 12:08:56 GMT 3.775666 102.445236 15,950 137 460 -960
2019-01-16 12:08:45 GMT 3.791794 102.428795 16,125 128 459 -1024
2019-01-16 12:08:34 GMT 3.804749 102.410690 16,250 120 457 -256
2019-01-16 12:08:28 GMT 3.812116 102.396652 16,275 108 456 64
2019-01-16 12:08:23 GMT 3.815094 102.389648 16,250 110 456 64
2019-01-16 12:08:12 GMT 3.821915 102.366974 16,275 102 457 -64
2019-01-16 12:08:07 GMT 3.823975 102.356827 16,275 101 457 -64
2019-01-16 12:08:02 GMT 3.825531 102.345467 16,275 96 458 0
2019-01-16 12:07:59 GMT 3.826035 102.340202 16,275 93 458 -64
2019-01-16 12:07:56 GMT 3.826547 102.331680 16,275 91 460 0
2019-01-16 12:07:51 GMT 3.826687 102.322113 16,275 89 460 64
2019-01-16 12:07:46 GMT 3.826361 102.312973 16,275 86 459 0
2019-01-16 12:07:43 GMT 3.825623 102.303848 16,275 82 458 0
2019-01-16 12:07:40 GMT 3.825151 102.299858 16,275 82 458 0
2019-01-16 12:07:33 GMT 3.822693 102.285461 16,275 75 456 0
2019-01-16 12:07:29 GMT 3.820775 102.277222 16,275 75 456 0
2019-01-16 12:07:19 GMT 3.814087 102.256416 16,275 68 454 0
2019-01-16 12:07:07 GMT 3.804063 102.234695 16,275 61 452 0
2019-01-16 12:07:04 GMT 3.800125 102.227783 16,275 58 452 0
2019-01-16 12:07:01 GMT 3.795869 102.221008 16,275 56 452 0
2019-01-16 12:06:57 GMT 3.792937 102.216705 16,275 54 452 0
2019-01-16 12:06:53 GMT 3.787491 102.209251 16,275 46 451 0
2019-01-16 12:06:46 GMT 3.778505 102.198471 16,275 47 451 64
2019-01-16 12:06:42 GMT 3.771988 102.191650 16,275 44 451 0
2019-01-16 12:06:35 GMT 3.761993 102.182442 16,275 40 451 64
2019-01-16 12:06:29 GMT 3.749271 102.172569 16,250 35 450 64
2019-01-16 12:06:25 GMT 3.744988 102.169586 16,250 33 449 0
2019-01-16 12:06:18 GMT 3.730316 102.160423 16,250 30 448 0
2019-01-16 12:06:14 GMT 3.725808 102.157745 16,250 30 449 64
2019-01-16 12:06:06 GMT 3.709671 102.148178 16,275 30 449 0
2019-01-16 12:06:03 GMT 3.705917 102.145897 16,275 30 449 0
2019-01-16 12:05:56 GMT 3.690811 102.136963 16,250 30 449 -64
2019-01-16 12:05:52 GMT 3.686518 102.134399 16,275 30 450 -64
2019-01-16 12:05:45 GMT 3.667603 102.123177 16,275 30 452 -256
2019-01-16 12:05:34 GMT 3.651489 102.113594 16,350 30 455 -960
2019-01-16 12:05:31 GMT 3.647873 102.111450 16,375 30 455 -1024
2019-01-16 12:05:23 GMT 3.631668 102.101814 16,400 30 454 1088
2019-01-16 12:05:12 GMT 3.611430 102.089790 16,125 30 451 1536
2019-01-16 12:05:09 GMT 3.609055 102.088409 16,075 30 451 1600
2019-01-16 12:05:02 GMT 3.595047 102.080070 15,875 30 450 1536
2019-01-16 12:04:59 GMT 3.589462 102.076767 15,800 30 449 1344
2019-01-16 12:04:52 GMT 3.576748 102.069191 15,650 30 447 1408
2019-01-16 12:04:48 GMT 3.569595 102.064941 15,525 30 447 1856
2019-01-16 12:04:37 GMT 3.550632 102.053757 15,200 30 446 1664
2019-01-16 12:04:26 GMT 3.530894 102.042053 14,975 30 443 1344
2019-01-16 12:04:15 GMT 3.512695 102.031288 14,700 30 440 1664
2019-01-16 12:04:05 GMT 3.493835 102.020210 14,400 30 438 1472
2019-01-16 12:03:58 GMT 3.481201 102.012802 14,250 30 435 1024
2019-01-16 12:03:54 GMT 3.474747 102.009033 14,200 30 434 1024
2019-01-16 12:03:43 GMT 3.455992 101.998116 13,950 30 431 1536
2019-01-16 12:03:33 GMT 3.437073 101.986923 13,625 30 429 1856
2019-01-16 12:03:25 GMT 3.424383 101.979408 13,400 30 428 1920
2019-01-16 12:03:22 GMT 3.417526 101.975327 13,275 30 427 1856
2019-01-16 12:03:11 GMT 3.399994 101.964813 12,975 30 425 1600
2019-01-16 12:02:59 GMT 3.381180 101.953636 12,775 30 421 704
2019-01-16 12:02:48 GMT 3.362189 101.942230 12,675 31 413 384
2019-01-16 12:02:38 GMT 3.344918 101.931908 12,600 30 404 384
2019-01-16 12:02:27 GMT 3.326483 101.921867 12,425 27 397 1152
2019-01-16 12:02:16 GMT 3.308793 101.913490 12,275 23 389 512
2019-01-16 12:02:06 GMT 3.290909 101.906250 12,175 20 380 1024
2019-01-16 12:01:54 GMT 3.272390 101.899658 11,900 19 374 1664
2019-01-16 12:01:45 GMT 3.258133 101.894608 11,600 19 369 1280
2019-01-16 12:01:33 GMT 3.237382 101.887115 11,425 20 361 1216
2019-01-16 12:01:21 GMT 3.219041 101.880104 11,200 21 356 832
2019-01-16 12:01:11 GMT 3.203751 101.874222 11,075 20 347 704
2019-01-16 12:01:00 GMT 3.187088 101.868027 10,950 20 337 640
2019-01-16 12:00:49 GMT 3.171278 101.862061 10,850 20 327 576
2019-01-16 12:00:38 GMT 3.155730 101.856140 10,650 20 317 1216
2019-01-16 12:00:27 GMT 3.140076 101.850288 10,325 20 313 2368
2019-01-16 12:00:18 GMT 3.130463 101.846802 10,050 19 313 2368
2019-01-16 12:00:13 GMT 3.121840 101.843689 9,825 19 313 2112
2019-01-16 12:00:08 GMT 3.115814 101.841492 9,700 20 310 1536
2019-01-16 12:00:05 GMT 3.110275 101.839493 9,600 20 308 1344
2019-01-16 11:59:56 GMT 3.100519 101.835831 9,425 20 303 1408
2019-01-16 11:59:50 GMT 3.092326 101.832748 9,275 20 301 1664
2019-01-16 11:59:46 GMT 3.086460 101.830574 9,100 20 300 2304
2019-01-16 11:59:41 GMT 3.079151 101.827774 8,875 20 299 2432
2019-01-16 11:59:32 GMT 3.068724 101.823845 8,525 20 299 2752
2019-01-16 11:59:29 GMT 3.063492 101.821846 8,350 21 301 2816
2019-01-16 11:59:23 GMT 3.055037 101.818588 8,025 20 301 2624
2019-01-16 11:59:20 GMT 3.051086 101.817101 7,925 20 302 2304
2019-01-16 11:59:11 GMT 3.040466 101.813049 7,675 20 300 1664
2019-01-16 11:59:07 GMT 3.034228 101.810730 7,550 20 298 1664
2019-01-16 11:59:01 GMT 3.026408 101.807648 7,350 22 294 1792
2019-01-16 11:58:55 GMT 3.020775 101.805191 7,225 25 292 1856
2019-01-16 11:58:50 GMT 3.013092 101.801414 7,025 28 290 1728
2019-01-16 11:58:44 GMT 3.007694 101.798370 6,875 31 288 1984
2019-01-16 11:58:39 GMT 3.000458 101.793587 6,650 35 286 2176
2019-01-16 11:58:33 GMT 2.994873 101.789543 6,450 37 285 2624
2019-01-16 11:58:28 GMT 2.989166 101.785202 6,200 37 285 2688
2019-01-16 11:58:22 GMT 2.983254 101.780708 5,950 37 285 2496
2019-01-16 11:58:17 GMT 2.977574 101.776299 5,750 37 285 2304
2019-01-16 11:58:05 GMT 2.965988 101.767426 5,275 37 283 3008
2019-01-16 11:58:00 GMT 2.960953 101.763611 5,025 37 283 3264
2019-01-16 11:57:54 GMT 2.954132 101.758400 4,650 36 286 3264
2019-01-16 11:57:45 GMT 2.943283 101.750389 4,200 36 288 1984
2019-01-16 11:57:34 GMT 2.931656 101.741920 3,950 35 279 1152
2019-01-16 11:57:28 GMT 2.926208 101.738007 3,825 35 274 2048
2019-01-16 11:57:21 GMT 2.918427 101.732376 3,550 36 272 2112
2019-01-16 11:57:12 GMT 2.909142 101.725304 3,300 37 268 1152
2019-01-16 11:57:01 GMT 2.898668 101.717201 3,100 38 259 960
2019-01-16 11:56:23 GMT 2.865244 101.689362 2,500 38 228 448
2019-01-16 11:55:56 GMT 2.841362 101.679649 2,375 4 204 384
2019-01-16 11:55:47 GMT 2.833008 101.680931 2,275 347 196 768
2019-01-16 11:55:35 GMT 2.822369 101.684196 2,100 342 190 640
2019-01-16 11:55:28 GMT 2.817016 101.685951 2,025 342 185 960
2019-01-16 11:55:17 GMT 2.807472 101.689125 1,725 342 186 2176
2019-01-16 11:55:04 GMT 2.798035 101.692245 1,325 340 186 1664
We lost coverage of the aircraft here for a total of 185 minutes
2019-01-16 08:50:10 GMT 2.693665 101.731300 675 327 155 -768
2019-01-16 08:50:05 GMT 2.690393 101.733444 775 327 155 -768
2019-01-16 08:49:56 GMT 2.684738 101.737259 875 327 155 -768
2019-01-16 08:49:45 GMT 2.678696 101.741310 1,000 327 155 -832
2019-01-16 08:49:37 GMT 2.673635 101.744667 1,125 327 158 -768
2019-01-16 08:49:23 GMT 2.665302 101.750259 1,300 326 160 -768
2019-01-16 08:49:10 GMT 2.657202 101.755707 1,475 326 156 -896
2019-01-16 08:49:04 GMT 2.653338 101.758308 1,550 327 155 -768
2019-01-16 08:48:52 GMT 2.646423 101.762962 1,725 326 156 -640
2019-01-16 08:48:40 GMT 2.638767 101.768059 1,875 327 155 -832
2019-01-16 08:48:24 GMT 2.629211 101.774414 2,100 327 153 -832
2019-01-16 08:48:19 GMT 2.626663 101.776115 2,150 327 159 -896
2019-01-16 08:48:08 GMT 2.620239 101.780418 2,300 327 170 -768
2019-01-16 08:47:57 GMT 2.612698 101.785492 2,450 326 181 -832
2019-01-16 08:47:47 GMT 2.605296 101.790504 2,600 326 182 -1024
2019-01-16 08:47:35 GMT 2.597305 101.795921 2,800 327 183 -960
2019-01-16 08:47:22 GMT 2.587420 101.802536 3,025 326 182 -960
2019-01-16 08:47:14 GMT 2.581647 101.806419 3,150 327 181 -960
2019-01-16 08:47:04 GMT 2.574572 101.811111 3,300 327 180 -960
2019-01-16 08:46:52 GMT 2.566086 101.816772 3,500 326 180 -768
2019-01-16 08:46:42 GMT 2.559128 101.821426 3,650 327 180 -896
2019-01-16 08:46:31 GMT 2.551528 101.826500 3,800 326 184 -1024
2019-01-16 08:46:24 GMT 2.547501 101.829247 3,900 326 186 -1088
2019-01-16 08:46:17 GMT 2.541799 101.833076 4,050 326 189 -1216
2019-01-16 08:46:09 GMT 2.535793 101.837105 4,175 327 192 -256
2019-01-16 08:46:04 GMT 2.532944 101.838982 4,200 328 196 -256
2019-01-16 08:45:57 GMT 2.527461 101.842506 4,200 327 198 0
2019-01-16 08:45:45 GMT 2.518569 101.848900 4,200 321 198 64
2019-01-16 08:45:34 GMT 2.511586 101.856331 4,175 307 198 -64
2019-01-16 08:45:22 GMT 2.504562 101.866211 4,175 306 201 192
2019-01-16 08:45:14 GMT 2.500214 101.872307 4,150 306 205 -64
2019-01-16 08:45:04 GMT 2.494583 101.880272 4,250 306 213 -768
2019-01-16 08:44:53 GMT 2.488077 101.889435 4,425 306 218 -1152
2019-01-16 08:44:42 GMT 2.481628 101.898521 4,650 306 218 -1344
2019-01-16 08:44:30 GMT 2.474810 101.908134 4,900 306 221 -1088
2019-01-16 08:44:24 GMT 2.471603 101.912720 4,975 306 225 -832
2019-01-16 08:44:19 GMT 2.468994 101.916351 5,050 306 227 -704
2019-01-16 08:44:12 GMT 2.464325 101.922958 5,125 306 232 -640
2019-01-16 08:44:08 GMT 2.462101 101.926132 5,175 306 234 -768
2019-01-16 08:44:02 GMT 2.457962 101.931900 5,275 306 237 -1088
2019-01-16 08:43:57 GMT 2.455032 101.935898 5,350 306 240 -1344
2019-01-16 08:43:50 GMT 2.450649 101.941948 5,500 306 242 -1344
2019-01-16 08:43:46 GMT 2.448029 101.945587 5,600 305 243 -1280
2019-01-16 08:43:39 GMT 2.443405 101.952240 5,775 305 243 -1664
2019-01-16 08:43:36 GMT 2.441060 101.955589 5,875 305 244 -1408
2019-01-16 08:43:27 GMT 2.435427 101.963547 6,050 306 245 -1216
2019-01-16 08:43:23 GMT 2.431686 101.968857 6,175 306 246 -1216
2019-01-16 08:43:18 GMT 2.429672 101.971703 6,225 305 247 -1152
2019-01-16 08:43:15 GMT 2.426605 101.976120 6,300 305 249 -960
2019-01-16 08:43:07 GMT 2.422392 101.982109 6,400 306 252 -960
2019-01-16 08:43:01 GMT 2.417404 101.989113 6,500 306 256 -832
2019-01-16 08:42:57 GMT 2.415024 101.992508 6,550 306 259 -704
2019-01-16 08:42:51 GMT 2.410428 101.999016 6,600 306 262 -448
2019-01-16 08:42:45 GMT 2.407030 102.003792 6,650 306 264 -640
2019-01-16 08:42:41 GMT 2.404037 102.008011 6,700 306 266 -768
2019-01-16 08:42:34 GMT 2.398930 102.015160 6,775 306 269 -704
2019-01-16 08:42:31 GMT 2.396416 102.018761 6,825 306 271 -768
2019-01-16 08:42:24 GMT 2.391678 102.025421 6,900 306 274 -704
2019-01-16 08:42:18 GMT 2.386963 102.032082 6,975 306 275 -704
2019-01-16 08:42:13 GMT 2.383568 102.036850 7,050 306 277 -1024
2019-01-16 08:42:08 GMT 2.380216 102.041580 7,150 306 277 -1152
2019-01-16 08:42:01 GMT 2.374924 102.049072 7,300 305 277 -1216
2019-01-16 08:41:58 GMT 2.371902 102.053352 7,375 305 277 -1216
2019-01-16 08:41:51 GMT 2.367142 102.060104 7,525 306 279 -1088
2019-01-16 08:41:47 GMT 2.363388 102.065361 7,625 306 278 -1152
2019-01-16 08:41:40 GMT 2.358942 102.071609 7,750 305 278 -1472
2019-01-16 08:41:37 GMT 2.356018 102.075836 7,850 305 278 -1856
2019-01-16 08:41:29 GMT 2.351167 102.082970 8,075 304 278 -2048
2019-01-16 08:41:25 GMT 2.347443 102.088699 8,275 303 279 -2048
2019-01-16 08:41:18 GMT 2.343626 102.094856 8,450 301 280 -1984
2019-01-16 08:41:14 GMT 2.341019 102.099213 8,575 301 282 -1920
2019-01-16 08:41:07 GMT 2.336288 102.107262 8,800 301 284 -1856
2019-01-16 08:41:04 GMT 2.333633 102.111778 8,925 301 285 -1984
2019-01-16 08:40:56 GMT 2.328543 102.120522 9,125 301 288 -1728
2019-01-16 08:40:53 GMT 2.326309 102.124344 9,200 301 290 -1536
2019-01-16 08:40:46 GMT 2.322072 102.131561 9,350 301 293 -1600
2019-01-16 08:40:43 GMT 2.318848 102.137100 9,475 301 296 -1536
2019-01-16 08:40:34 GMT 2.313786 102.145813 9,600 301 301 -448
2019-01-16 08:40:31 GMT 2.311738 102.149315 9,600 300 305 320
2019-01-16 08:40:24 GMT 2.306351 102.158791 9,525 300 314 384
2019-01-16 08:40:20 GMT 2.303544 102.163620 9,525 300 322 256
2019-01-16 08:40:13 GMT 2.298191 102.172806 9,500 301 337 192
2019-01-16 08:40:07 GMT 2.293488 102.180809 9,500 300 346 -64
2019-01-16 08:40:00 GMT 2.286850 102.193382 9,575 296 362 -704
2019-01-16 08:39:49 GMT 2.279892 102.209251 9,875 291 372 -2560
2019-01-16 08:39:38 GMT 2.273666 102.227600 10,400 286 376 -3008
2019-01-16 08:39:29 GMT 2.270554 102.240540 10,800 281 380 -3008
2019-01-16 08:39:26 GMT 2.269455 102.246590 10,975 280 381 -2944
2019-01-16 08:39:16 GMT 2.266489 102.265144 11,525 280 385 -3328
2019-01-16 08:39:05 GMT 2.263184 102.284531 12,125 280 387 -3328
2019-01-16 08:38:53 GMT 2.259878 102.303642 12,750 280 390 -3456
2019-01-16 08:38:45 GMT 2.257462 102.317719 13,200 280 391 -3584
2019-01-16 08:38:42 GMT 2.256317 102.324287 13,425 280 391 -3584
2019-01-16 08:38:35 GMT 2.254152 102.336983 13,850 280 392 -3520
2019-01-16 08:38:28 GMT 2.251778 102.350243 14,050 280 394 -2048
2019-01-16 08:38:24 GMT 2.250661 102.356873 14,375 280 394 -2240
2019-01-16 08:38:18 GMT 2.248718 102.367813 14,575 280 394 -2048
2019-01-16 08:38:13 GMT 2.247208 102.376656 14,750 280 395 -2048
2019-01-16 08:38:01 GMT 2.243632 102.396889 15,125 280 398 -1984
2019-01-16 08:37:57 GMT 2.242035 102.406174 15,300 280 399 -2112
2019-01-16 08:37:51 GMT 2.240341 102.415810 15,500 280 399 -2240
2019-01-16 08:37:40 GMT 2.236835 102.435623 15,925 281 400 -2368
2019-01-16 08:37:32 GMT 2.234253 102.450027 16,250 281 399 -2816
2019-01-16 08:37:29 GMT 2.233154 102.456032 16,400 281 399 -2816
2019-01-16 08:37:26 GMT 2.232040 102.462189 16,575 280 398 -2688
2019-01-16 08:37:18 GMT 2.229619 102.475967 16,850 281 399 -1792
2019-01-16 08:37:12 GMT 2.227753 102.486336 16,975 281 401 -1216
2019-01-16 08:37:07 GMT 2.226128 102.495529 17,100 280 404 -1472
2019-01-16 08:36:56 GMT 2.222626 102.515617 17,500 280 403 -3008
2019-01-16 08:36:46 GMT 2.219238 102.535309 18,150 280 396 -3584
2019-01-16 08:36:34 GMT 2.215374 102.556000 18,625 282 395 -1728
2019-01-16 08:36:23 GMT 2.210541 102.574829 18,875 289 399 -1280
2019-01-16 08:36:12 GMT 2.202852 102.593742 19,150 297 403 -1664
2019-01-16 08:36:01 GMT 2.192564 102.611404 19,475 305 406 -1792
2019-01-16 08:35:51 GMT 2.180466 102.627342 19,800 310 408 -1664
2019-01-16 08:35:40 GMT 2.167053 102.643539 20,100 307 410 -1664
2019-01-16 08:35:28 GMT 2.154158 102.662170 20,425 301 412 -1664
2019-01-16 08:35:18 GMT 2.144852 102.679337 20,700 297 416 -1344
2019-01-16 08:35:07 GMT 2.135863 102.697731 20,875 296 419 -1152
2019-01-16 08:34:55 GMT 2.125854 102.718163 21,175 296 420 -1280
2019-01-16 08:34:45 GMT 2.116928 102.736412 21,475 296 423 -1728
2019-01-16 08:34:34 GMT 2.107224 102.756386 21,800 296 426 -1728
2019-01-16 08:34:23 GMT 2.098114 102.775002 22,100 296 428 -1792
2019-01-16 08:34:12 GMT 2.088333 102.795044 22,450 296 432 -1792
2019-01-16 08:34:01 GMT 2.078976 102.814323 22,775 296 435 -1856
2019-01-16 08:33:51 GMT 2.069641 102.833565 23,100 296 437 -1920
2019-01-16 08:33:40 GMT 2.060030 102.853249 23,425 296 440 -1472
2019-01-16 08:33:28 GMT 2.049683 102.874443 23,625 297 446 -768
2019-01-16 08:33:18 GMT 2.040105 102.893974 23,750 296 451 -832
2019-01-16 08:33:07 GMT 2.029770 102.915131 23,875 296 457 -768
2019-01-16 08:32:56 GMT 2.019855 102.935455 23,975 296 459 -256
2019-01-16 08:32:45 GMT 2.009334 102.956909 24,000 296 461 0
2019-01-16 08:32:34 GMT 1.998953 102.978165 24,000 296 461 0
2019-01-16 08:32:23 GMT 1.988898 102.998718 24,000 296 462 0
2019-01-16 08:32:11 GMT 1.977997 103.020988 24,000 297 462 64
2019-01-16 08:32:02 GMT 1.968741 103.039780 24,000 297 462 64
2019-01-16 08:31:50 GMT 1.957535 103.062698 24,000 296 463 0
2019-01-16 08:31:38 GMT 1.946628 103.084862 24,000 297 465 0
2019-01-16 08:31:29 GMT 1.937485 103.103386 24,000 297 465 -64
2019-01-16 08:31:18 GMT 1.927589 103.123497 24,000 297 467 -64
2019-01-16 08:31:07 GMT 1.916840 103.145279 24,025 297 468 320
2019-01-16 08:30:55 GMT 1.905290 103.168724 23,875 296 466 768
2019-01-16 08:30:44 GMT 1.894816 103.190178 23,750 296 464 704
2019-01-16 08:30:37 GMT 1.887543 103.205147 23,650 296 459 768
2019-01-16 08:30:34 GMT 1.885785 103.208786 23,625 296 458 832
2019-01-16 08:30:30 GMT 1.881176 103.218307 23,525 296 455 1408
2019-01-16 08:30:23 GMT 1.875504 103.229820 23,375 297 453 1792
2019-01-16 08:30:12 GMT 1.865534 103.250603 22,975 295 452 2240
2019-01-16 08:30:01 GMT 1.856922 103.271912 22,650 289 449 1344
2019-01-16 08:29:49 GMT 1.849381 103.295212 22,325 287 447 1984
2019-01-16 08:29:40 GMT 1.844679 103.313393 22,000 283 446 1920
2019-01-16 08:29:28 GMT 1.840210 103.337494 21,650 279 444 1792
2019-01-16 08:29:21 GMT 1.837929 103.353317 21,400 279 440 1600
2019-01-16 08:29:18 GMT 1.837326 103.357559 21,375 279 440 1600
2019-01-16 08:29:13 GMT 1.835462 103.370644 21,200 279 438 1920
2019-01-16 08:29:07 GMT 1.834167 103.379440 21,075 279 438 1920
2019-01-16 08:29:01 GMT 1.832016 103.394241 20,825 279 435 1856
2019-01-16 08:28:51 GMT 1.829224 103.413559 20,525 279 434 1984
2019-01-16 08:28:40 GMT 1.825974 103.435951 20,125 279 432 2048
2019-01-16 08:28:23 GMT 1.821259 103.468262 19,675 279 428 1728
2019-01-16 08:28:17 GMT 1.819794 103.478645 19,475 279 427 2112
2019-01-16 08:28:13 GMT 1.818512 103.487396 19,300 279 426 2304
2019-01-16 08:28:07 GMT 1.816727 103.499870 19,050 279 426 2304
2019-01-16 08:28:00 GMT 1.814839 103.512901 18,800 279 425 2112
2019-01-16 08:27:56 GMT 1.813489 103.522041 18,650 279 424 2112
2019-01-16 08:27:51 GMT 1.812332 103.530174 18,500 279 423 2304
2019-01-16 08:27:44 GMT 1.810184 103.544861 18,225 279 422 2176
2019-01-16 08:27:34 GMT 1.807388 103.564346 17,875 279 420 2240
2019-01-16 08:27:23 GMT 1.804272 103.585777 17,475 279 418 1920
2019-01-16 08:27:10 GMT 1.800873 103.609360 17,050 279 414 2112
2019-01-16 08:26:57 GMT 1.797272 103.634636 16,625 279 411 1664
2019-01-16 08:26:47 GMT 1.794728 103.652168 16,325 279 406 2368
2019-01-16 08:26:37 GMT 1.791842 103.672394 15,900 279 404 2112
2019-01-16 08:26:24 GMT 1.788437 103.695526 15,475 279 401 2048
2019-01-16 08:26:15 GMT 1.786023 103.711929 15,125 279 398 2368
2019-01-16 08:26:03 GMT 1.782764 103.734238 14,675 279 392 2432
2019-01-16 08:25:53 GMT 1.780111 103.752609 14,250 279 392 2432
2019-01-16 08:25:40 GMT 1.776947 103.774666 13,800 279 389 1920
2019-01-16 08:25:21 GMT 1.772244 103.807213 13,100 279 380 1856
2019-01-16 08:25:18 GMT 1.771499 103.812325 13,000 279 380 1856
2019-01-16 08:25:04 GMT 1.767914 103.836143 12,575 279 376 1984
2019-01-16 08:23:11 GMT 1.669098 103.959106 9,925 332 286 1024
2019-01-16 08:23:03 GMT 1.658144 103.964996 9,650 332 284 832
2019-01-16 08:22:57 GMT 1.647949 103.970467 9,325 332 279 2560
2019-01-16 08:22:12 GMT 1.601349 103.995834 7,350 331 269 3264
2019-01-16 08:21:49 GMT 1.575840 104.010315 6,225 330 267 1664
2019-01-16 08:21:45 GMT 1.572069 104.012444 6,225 330 267 1664
2019-01-16 08:21:35 GMT 1.561432 104.018692 6,175 330 263 -64
2019-01-16 08:21:25 GMT 1.551121 104.024857 6,200 328 265 448
2019-01-16 08:21:19 GMT 1.544324 104.029068 6,150 328 264 832
2019-01-16 08:21:15 GMT 1.541245 104.031029 6,100 328 264 960
2019-01-16 08:21:05 GMT 1.530731 104.037781 5,950 329 262 960
2019-01-16 08:20:56 GMT 1.520536 104.043938 5,750 330 259 1536
2019-01-16 08:20:46 GMT 1.509705 104.049652 5,400 342 258 2112
2019-01-16 08:20:43 GMT 1.506958 104.050911 5,300 342 258 2048
2019-01-16 08:20:33 GMT 1.495072 104.054405 5,000 354 252 1152
2019-01-16 08:20:27 GMT 1.488601 104.054588 4,875 5 246 1664
2019-01-16 08:20:21 GMT 1.481711 104.053406 4,675 16 246 2112
2019-01-16 08:20:07 GMT 1.467047 104.047539 4,150 25 242 2432
2019-01-16 08:19:58 GMT 1.457318 104.042847 3,700 25 241 2688
2019-01-16 08:19:47 GMT 1.446716 104.037781 3,250 25 240 2240
2019-01-16 08:19:34 GMT 1.433809 104.031715 2,900 24 224 1472
2019-01-16 08:19:23 GMT 1.423009 104.026794 2,625 24 216 1344
2019-01-16 08:19:17 GMT 1.417748 104.024376 2,500 24 207 832
2019-01-16 08:19:06 GMT 1.408112 104.019974 2,350 24 191 832
2019-01-16 08:18:55 GMT 1.399965 104.016235 2,175 24 174 1216
2019-01-16 08:18:42 GMT 1.391190 104.012177 1,875 24 167 1792
2019-01-16 08:18:31 GMT 1.382812 104.008408 1,525 23 167 1792
2019-01-16 08:18:21 GMT 1.376131 104.005440 1,250 23 167 1600
2019-01-16 08:18:16 GMT 1.372127 104.003731 1,125 23 165 1408
2019-01-16 08:18:09 GMT 1.367615 104.001701 950 23 162 1536
2019-01-16 08:18:00 GMT 1.360582 103.998573 700 24 160 1600

Making use of Plane Finder data

You are free to use the raw flight data, aircraft information and images provided in this report for your own purposes provided the data is correctly attributed to Plane Finder. We ask that you please credit Plane Finder and link to planefinder.net in close proximity to the content.

Optionally one of the following logos (no smaller then 150x24px) can be used and must link to planefinder.net

Embedding the Plane Finder map

You are welcome to embed the Plane Finder playback map on your website to offer visitors a more interactive experience. We suggest using the following HTML code:

<iframe src="//planefinder.net/data/report/CV7303-LX-VCJ-7700-squawk-2019-01-16/map" width="800" height="600" seamless="seamless"></iframe>

Where our data comes from

Plane Finder has a global network of data feeds and antenna radars that receive data broadcast directly from aircraft. The primary technologies used are ADS-B and MLAT. We also show feeds from the FAA and a FLARM glider feed.

Click here to find out more about the Plane Finder network.

How we collect our data